Nearby METAR Reports



KADS - Dallas/Addison, Texas, USA
Distance from station: SSW 10mi, 16km
Updated: Tue, 18-Feb-2020 12:55am CST
Overcast
Overcast
 Wind from calm
Wind: Calm
Temperature: 63°F , 17°C
Dew Point: 46°F , 8°C
Humidity: 56%
Barometer: 29.88 inHg , 1011.9 hPa
Clouds: Overcast
Visibility: 10 miles , 16 km
Cloud details: Overcast 2600 ft
2020/02/18 06:55 KADS 180655Z AUTO 00000KT 10SM OVC026 17/08 A2988 RMK AO2 T01680080
KTKI - Mckinney, Texas, USA
Distance from station: ENE 11mi, 18km
Updated: Tue, 18-Feb-2020 12:53am CST
Overcast
Overcast
 Wind from N
Wind: N 3 mph , 6 km/h
Temperature: 63°F , 17°C
Dew Point: 46°F , 8°C
Humidity: 56%
Barometer: 29.87 inHg , 1011.5 hPa
Clouds: Overcast
Visibility: 10 miles , 16 km
Cloud details: Mostly cloudy 2700 ft
Overcast 3200 ft
2020/02/18 06:53 KTKI 180653Z AUTO 35003KT 10SM BKN027 OVC032 17/08 A2987 RMK AO2 SLP113 T01720083
 
KDAL - Dallas/Love Fld, Texas, USA
Distance from station: SSW 18mi, 30km
Updated: Tue, 18-Feb-2020 12:53am CST
Overcast
Overcast
 Wind from calm
Wind: Calm
Temperature: 63°F , 17°C
Dew Point: 48°F , 9°C
Humidity: 59%
Barometer: 29.86 inHg , 1011.2 hPa
Clouds: Overcast
Visibility: 10 miles , 16 km
Cloud details: Overcast 2500 ft
2020/02/18 06:53 KDAL 180653Z 00000KT 10SM OVC025 17/09 A2986 RMK AO2 SLP107 T01720089 $
KDFW - Dallas/Ft Worth, Texas, USA
Distance from station: SW 21mi, 34km
Updated: Tue, 18-Feb-2020 12:53am CST
Overcast
Overcast
 Wind from N
Wind: N 6 mph , 9 km/h
Temperature: 61°F , 16°C
Dew Point: 48°F , 9°C
Humidity: 63%
Barometer: 29.85 inHg , 1010.8 hPa
Clouds: Overcast
Visibility: 10 miles , 16 km
Cloud details: Overcast 2400 ft
2020/02/18 06:53 KDFW 180653Z 35005KT 10SM OVC024 16/09 A2985 RMK AO2 SLP103 T01610089 $
 
KF46 - Rockwall, Texas, USA
Distance from station: ESE 22mi, 35km
Updated: Tue, 18-Feb-2020 12:55am CST
Overcast
Overcast
 Wind from calm
Wind: Calm
Temperature: 64°F , 18°C
Dew Point: 55°F , 13°C
Humidity: 73%
Barometer: 29.87 inHg , 1011.5 hPa
Clouds: Overcast
Visibility: 10 miles , 16 km
Cloud details: Overcast 2100 ft
2020/02/18 06:55 KF46 180655Z AUTO 00000KT 10SM OVC021 18/13 A2987 RMK AO2 T01750125
KDTO - Denton, Texas, USA
Distance from station: WNW 27mi, 43km
Updated: Tue, 18-Feb-2020 12:53am CST
Few Clouds
Few Clouds
 Wind from N
Wind: N 5 mph , 7 km/h
Temperature: 55°F , 13°C
Dew Point: 50°F , 10°C
Humidity: 82%
Barometer: 29.88 inHg , 1011.9 hPa
Clouds: Few Clouds
Visibility: 10 miles , 16 km
Cloud details: Few Clouds 3400 ft
2020/02/18 06:53 KDTO 180653Z AUTO 35004KT 10SM FEW034 13/10 A2988 RMK AO2 SLP112 T01280100
 
KHQZ - Mesquite, Texas, USA
Distance from station: SSE 28mi, 44km
Updated: Tue, 18-Feb-2020 12:55am CST
Overcast
Overcast
 Wind from calm
Wind: Calm
Temperature: 63°F , 17°C
Dew Point: 57°F , 14°C
Humidity: 83%
Barometer: 29.87 inHg , 1011.5 hPa
Clouds: Overcast
Visibility: 10 miles , 16 km
Cloud details: Partly cloudy 1600 ft
Overcast 2400 ft
2020/02/18 06:55 KHQZ 180655Z AUTO 00000KT 10SM SCT016 OVC024 17/14 A2987 RMK AO1 T01710142
KRBD - Dallas/Redbird, Texas, USA
Distance from station: SSW 30mi, 48km
Updated: Tue, 18-Feb-2020 12:53am CST
Overcast
Overcast
 Wind from WNW
Wind: WNW 5 mph , 7 km/h
Temperature: 63°F , 17°C
Dew Point: 48°F , 9°C
Humidity: 59%
Barometer: 29.86 inHg , 1011.2 hPa
Clouds: Overcast
Visibility: 10 miles , 16 km
Cloud details: Overcast 2100 ft
2020/02/18 06:53 KRBD 180653Z AUTO 30004KT 10SM OVC021 17/09 A2986 RMK AO2 SLP106 T01720094
 
KGPM - Grand Prairie, Texas, USA
Distance from station: SSW 33mi, 53km
Updated: Tue, 18-Feb-2020 1:00am CST
Overcast
Overcast
 Wind from NNW
Wind: NNW 3 mph , 6 km/h
Temperature: 63°F , 17°C
Dew Point: 46°F , 8°C
Humidity: 56%
Barometer: 29.88 inHg , 1011.9 hPa
Clouds: Overcast
Visibility: 10 miles , 16 km
Cloud details: Overcast 2200 ft
2020/02/18 07:00 KGPM 180700Z AUTO 34003KT 10SM OVC022 17/08 A2988 RMK AO2 T01710079
KAFW - Ft Worth/Allianc, Texas, USA
Distance from station: WSW 34mi, 55km
Updated: Tue, 18-Feb-2020 12:53am CST
Mostly cloudy
Mostly cloudy
 Wind from N
Wind: N 7 mph , 11 km/h
Temperature: 57°F , 14°C
Dew Point: 50°F , 10°C
Humidity: 77%
Barometer: 29.87 inHg , 1011.5 hPa
Clouds: Mostly cloudy
Visibility: 10 miles , 16 km
Cloud details: Mostly cloudy 3000 ft
Mostly cloudy 24000 ft
2020/02/18 06:53 KAFW 180653Z 35006KT 10SM BKN030 BKN240 14/10 A2987 RMK AO2 SLP108 T01390100
 
KLNC - Lancaster, Texas, USA
Distance from station: S 36mi, 58km
Updated: Tue, 18-Feb-2020 12:55am CST
Overcast
Overcast
 Wind from calm
Wind: Calm
Temperature: 63°F , 17°C
Dew Point: 54°F , 12°C
Humidity: 73%
Barometer: 29.88 inHg , 1011.9 hPa
Clouds: Overcast
Visibility: 10 miles , 16 km
Cloud details: Overcast 2000 ft
2020/02/18 06:55 KLNC 180655Z AUTO 00000KT 10SM OVC020 17/12 A2988 RMK AO2 T01700116
KGKY - Arlington, Texas, USA
Distance from station: SSW 36mi, 59km
Updated: Tue, 18-Feb-2020 12:53am CST
Overcast
Overcast
 Wind from NW
Wind: NW 5 mph , 7 km/h
Temperature: 63°F , 17°C
Dew Point: 50°F , 10°C
Humidity: 64%
Barometer: 29.86 inHg , 1011.2 hPa
Clouds: Overcast
Visibility: 10 miles , 16 km
Cloud details: Overcast 2100 ft
2020/02/18 06:53 KGKY 180653Z AUTO 32004KT 10SM OVC021 17/10 A2986 RMK AO2 SLP106 T01720100 $
 
KTRL - Terrell, Texas, USA
Distance from station: SE 39mi, 63km
Updated: Tue, 18-Feb-2020 12:53am CST
Mist, Few clouds
Mist, Few clouds
 Wind from W
Wind: W 3 mph , 6 km/h
Temperature: 63°F , 17°C
Dew Point: 63°F , 17°C
Humidity: 100%
Barometer: 29.87 inHg , 1011.5 hPa
Summary: Mist
Clouds: Few Clouds
Visibility: 1 mile , 2 km
Cloud details: Few Clouds 3600 ft
2020/02/18 06:53 KTRL 180653Z AUTO 27003KT 1SM BR FEW036 17/17 A2987 RMK AO2 SLP110 T01720167
KGVT - Greenville/Major, Texas, USA
Distance from station: E 40mi, 64km
Updated: Tue, 18-Feb-2020 12:50am CST
Haze, Overcast
Haze, Overcast
 Wind from calm
Wind: Calm
Temperature: 63°F , 17°C
Barometer: 29.87 inHg , 1011.5 hPa
Summary: Haze
Clouds: Overcast
Visibility: 5 miles , 8 km
Cloud details: Overcast 1300 ft
2020/02/18 06:50 KGVT 180650Z AUTO 00000KT 5SM HZ OVC013 17/ A2987 RMK AO2
 
KFTW - Fort Worth, Texas, USA
Distance from station: WSW 40mi, 65km
Updated: Tue, 18-Feb-2020 12:53am CST
Overcast
Overcast
 Wind from NNW
Wind: NNW 5 mph , 7 km/h
Temperature: 55°F , 13°C
Dew Point: 50°F , 10°C
Humidity: 82%
Barometer: 29.87 inHg , 1011.5 hPa
Clouds: Overcast
Visibility: 10 miles , 16 km
Cloud details: Mostly cloudy 2900 ft
Overcast 3600 ft
2020/02/18 06:53 KFTW 180653Z 33004KT 10SM BKN029 OVC036 13/10 A2987 RMK AO2 SLP109 T01330100 $
KGYI - Sherman/Denison, Texas, USA
Distance from station: N 43mi, 69km
Updated: Tue, 18-Feb-2020 12:55am CST
Overcast
Overcast
 Wind from NNE
Wind: NNE 7 mph , 11 km/h
Temperature: 59°F , 15°C
Dew Point: 52°F , 11°C
Humidity: 77%
Barometer: 29.90 inHg , 1012.5 hPa
Clouds: Overcast
Visibility: 10 miles , 16 km
Cloud details: Overcast 3700 ft
2020/02/18 06:55 KGYI 180655Z AUTO 03006KT 10SM OVC037 15/11 A2990 RMK AO2 T01500110
 
KNFW - Fort Worth Nas, Texas, USA
Distance from station: WSW 45mi, 73km
Updated: Tue, 18-Feb-2020 12:52am CST
Overcast
Overcast
 Wind from NW
Wind: NW 6 mph , 9 km/h
Temperature: 77°F , 25°C
Dew Point: 48°F , 9°C
Humidity: 36%
Barometer: 29.88 inHg , 1011.9 hPa
Clouds: Overcast
Cloud details: Mostly cloudy 3200 ft
Mostly cloudy 4600 ft
Overcast 5500 ft
2020/02/18 06:52 KNFW 180652Z AUTO 32005KT BKN032 BKN046 OVC055 25/09 A2988 RMK AO2 SLP102 T02500094 VISNO N $
KGLE - Gainesville, Texas, USA
Distance from station: NW 46mi, 74km
Updated: Tue, 18-Feb-2020 12:55am CST
Partly cloudy
Partly cloudy
 Wind from NNE
Wind: NNE 8 mph , 13 km/h
Temperature: 55°F , 13°C
Dew Point: 50°F , 10°C
Humidity: 82%
Barometer: 29.91 inHg , 1012.9 hPa
Clouds: Partly cloudy
Visibility: 10 miles , 16 km
Cloud details: Partly cloudy 3800 ft
2020/02/18 06:55 KGLE 180655Z AUTO 02007KT 10SM SCT038 13/10 A2991 RMK AO2 T01310100 PWINO
 
KJWY - Midlothian/Wax, Texas, USA
Distance from station: SSW 46mi, 74km
Updated: Sat, 25-Jan-2020 1:15pm CST
NOT Current
Partly cloudy
Partly cloudy
 Wind from S
Wind: S 15 mph , 24 km/h, Gust: 25 mph , 41 km/h
Temperature: 63°F , 17°C
Dew Point: 41°F , 5°C
Humidity: 45%
Barometer: 30.05 inHg , 1017.6 hPa
Clouds: Partly cloudy
Visibility: 10 miles , 16 km
Cloud details: Partly cloudy 5500 ft
2020/01/25 19:15 KJWY 251915Z AUTO 18013G22KT 10SM SCT055 17/05 A3005 RMK AO2 T01690045
KFWS - Fort Worth/88d, Texas, USA
Distance from station: SW 49mi, 79km
Updated: Tue, 18-Feb-2020 12:55am CST
Mostly cloudy
Mostly cloudy
 Wind from NNW
Wind: NNW 3 mph , 6 km/h
Temperature: 59°F , 15°C
Dew Point: 50°F , 10°C
Humidity: 72%
Barometer: 29.88 inHg , 1011.9 hPa
Clouds: Mostly cloudy
Visibility: 7 miles , 11 km
Cloud details: Partly cloudy 1700 ft
Mostly cloudy 2200 ft
Mostly cloudy 5500 ft
2020/02/18 06:55 KFWS 180655Z AUTO 34003KT 7SM SCT017 BKN022 BKN055 15/10 A2988 RMK AO2 T01490095 PWINO